createdAt,value
2017-07-08T00:02:04.378Z,77.30
2017-07-08T00:04:31.891Z,77.70
2017-07-08T00:06:59.474Z,77.90
2017-07-08T00:09:27.020Z,78.00
2017-07-08T00:11:54.675Z,78.70
2017-07-08T00:14:22.224Z,78.00
2017-07-08T00:16:49.699Z,77.80
2017-07-08T00:19:17.260Z,77.90
2017-07-08T00:21:44.758Z,78.00
2017-07-08T00:24:12.371Z,78.50
2017-07-08T00:26:39.880Z,79.00
2017-07-08T00:29:07.393Z,79.80
2017-07-08T00:31:34.921Z,79.80
2017-07-08T00:34:03.190Z,79.90
2017-07-08T00:36:30.787Z,79.90
2017-07-08T00:38:58.316Z,79.50
2017-07-08T00:41:26.611Z,79.00
2017-07-08T00:43:54.200Z,79.00
2017-07-08T00:46:21.731Z,79.00
2017-07-08T00:48:50.140Z,78.00
2017-07-08T00:51:17.687Z,77.80
2017-07-08T00:53:45.246Z,78.00
2017-07-08T00:56:12.807Z,78.00
2017-07-08T00:58:40.572Z,78.00
2017-07-08T01:01:08.079Z,77.90
2017-07-08T01:03:35.579Z,78.10
2017-07-08T01:06:03.150Z,78.30
2017-07-08T01:08:30.663Z,78.60
2017-07-08T01:10:58.271Z,78.70
2017-07-08T01:13:25.779Z,78.70
2017-07-08T01:15:53.383Z,79.00
2017-07-08T01:18:21.867Z,79.30
2017-07-08T01:20:49.427Z,79.60
2017-07-08T01:23:16.922Z,79.40
2017-07-08T01:25:44.552Z,78.80
2017-07-08T01:28:12.059Z,78.60
2017-07-08T01:30:39.599Z,79.50
2017-07-08T01:33:07.126Z,80.00
2017-07-08T01:35:34.695Z,79.60
2017-07-08T01:38:02.246Z,79.80
2017-07-08T01:40:29.772Z,80.30
2017-07-08T01:42:58.087Z,80.70
2017-07-08T01:45:25.632Z,80.70
2017-07-08T01:47:53.131Z,80.10
2017-07-08T01:50:20.631Z,79.90
2017-07-08T01:52:48.927Z,79.40
2017-07-08T01:55:16.458Z,79.40
2017-07-08T01:57:43.990Z,79.40
2017-07-08T02:00:11.514Z,80.50
2017-07-08T02:02:39.075Z,81.40
2017-07-08T02:05:06.795Z,81.60
2017-07-08T02:07:34.405Z,81.80
2017-07-08T02:10:01.902Z,82.00
2017-07-08T02:12:29.783Z,82.40
2017-07-08T02:14:57.285Z,82.90
2017-07-08T02:17:24.820Z,83.10
2017-07-08T02:19:53.091Z,83.60
2017-07-08T02:22:21.393Z,84.30
2017-07-08T02:24:48.890Z,84.10
2017-07-08T02:27:16.419Z,84.20
2017-07-08T02:29:43.923Z,84.80
2017-07-08T02:32:11.638Z,85.40
2017-07-08T02:34:39.135Z,85.40
2017-07-08T02:37:06.654Z,85.30
2017-07-08T02:39:34.187Z,85.70
2017-07-08T02:42:02.491Z,86.40
2017-07-08T02:44:30.025Z,86.50
2017-07-08T02:46:58.339Z,88.60
2017-07-08T02:49:25.895Z,87.90
2017-07-08T02:51:53.425Z,88.20
2017-07-08T02:54:21.696Z,88.30
2017-07-08T02:56:49.999Z,88.60
2017-07-08T02:59:17.526Z,88.60
2017-07-08T03:01:45.074Z,89.00
2017-07-08T03:04:12.579Z,89.90
2017-07-08T03:06:40.155Z,90.30
2017-07-08T03:09:07.692Z,90.20
2017-07-08T03:11:35.226Z,90.10
2017-07-08T03:14:03.248Z,89.90
2017-07-08T03:16:30.796Z,89.90
2017-07-08T03:18:58.302Z,90.30
2017-07-08T03:21:25.831Z,90.50
2017-07-08T03:23:53.366Z,90.50
2017-07-08T03:26:20.938Z,90.30
2017-07-08T03:28:48.447Z,90.40
2017-07-08T03:31:16.156Z,90.50
2017-07-08T03:33:43.823Z,91.70
2017-07-08T03:36:11.376Z,91.80
2017-07-08T03:38:38.935Z,92.10
2017-07-08T03:41:06.471Z,92.20
2017-07-08T03:43:34.007Z,92.60
2017-07-08T03:46:01.615Z,92.70
2017-07-08T03:48:29.175Z,92.80
2017-07-08T03:50:56.711Z,92.90
2017-07-08T03:53:24.978Z,92.70
2017-07-08T03:55:52.571Z,92.70
2017-07-08T03:58:20.135Z,92.50
2017-07-08T04:00:47.795Z,92.20
2017-07-08T04:03:15.353Z,92.00
2017-07-08T04:05:42.851Z,91.80
2017-07-08T04:08:10.471Z,91.80
2017-07-08T04:10:37.997Z,91.80
2017-07-08T04:13:06.299Z,91.30
2017-07-08T04:15:33.875Z,91.30
2017-07-08T04:18:01.411Z,91.30
2017-07-08T04:20:29.711Z,91.30
2017-07-08T04:22:57.218Z,91.30
2017-07-08T04:25:24.827Z,91.40
2017-07-08T04:27:52.366Z,91.40
2017-07-08T04:30:20.662Z,91.40
2017-07-08T04:32:48.194Z,91.40
2017-07-08T04:35:16.503Z,91.10
2017-07-08T04:37:44.269Z,91.10
2017-07-08T04:40:11.832Z,90.70
2017-07-08T04:42:39.331Z,90.20
2017-07-08T04:45:06.945Z,89.70
2017-07-08T04:47:34.607Z,87.60
2017-07-08T04:50:02.174Z,87.50
2017-07-08T04:52:29.727Z,87.00
2017-07-08T04:54:57.259Z,85.60
2017-07-08T04:57:25.566Z,85.30
2017-07-08T04:59:53.098Z,84.70
2017-07-08T05:02:21.403Z,82.90
2017-07-08T05:04:48.938Z,82.00
2017-07-08T05:07:17.202Z,78.30
2017-07-08T05:09:44.702Z,78.30
2017-07-08T05:12:12.259Z,76.70
2017-07-08T05:14:39.815Z,74.40
2017-07-08T05:17:07.347Z,74.00
2017-07-08T05:19:35.647Z,75.60
2017-07-08T05:22:03.215Z,75.00
2017-07-08T05:24:30.761Z,75.30
2017-07-08T05:26:58.334Z,75.40
2017-07-08T05:29:25.834Z,75.00
2017-07-08T05:31:53.364Z,74.40
2017-07-08T05:34:20.894Z,74.10
2017-07-08T05:36:49.291Z,72.70
2017-07-08T05:39:16.850Z,72.70
2017-07-08T05:41:44.346Z,71.60
2017-07-08T05:44:11.846Z,71.80
2017-07-08T05:46:40.347Z,69.60
2017-07-08T05:49:07.851Z,69.50
2017-07-08T05:51:35.467Z,65.70
2017-07-08T05:54:02.966Z,65.00
2017-07-08T05:56:30.506Z,63.20
2017-07-08T05:58:58.012Z,62.10
2017-07-08T06:01:25.612Z,61.00
2017-07-08T06:03:53.150Z,60.40
2017-07-08T06:06:21.419Z,60.00
2017-07-08T06:08:49.727Z,59.10
2017-07-08T06:11:17.239Z,59.00
2017-07-08T06:13:44.774Z,58.70
2017-07-08T06:16:12.403Z,58.00
2017-07-08T06:18:39.970Z,57.50
2017-07-08T06:21:07.476Z,57.30
2017-07-08T06:23:35.090Z,57.00
2017-07-08T06:26:02.597Z,56.20
2017-07-08T06:28:30.202Z,55.30
2017-07-08T06:30:57.771Z,55.10
2017-07-08T06:33:25.323Z,55.20
2017-07-08T06:35:52.827Z,54.30
2017-07-08T06:38:20.442Z,54.40
2017-07-08T06:40:48.003Z,53.10
2017-07-08T06:43:15.564Z,53.10
2017-07-08T06:45:43.123Z,52.50
2017-07-08T06:48:10.682Z,51.70
2017-07-08T06:50:38.187Z,51.70
2017-07-08T06:53:05.723Z,51.70
2017-07-08T06:55:33.222Z,51.90
2017-07-08T06:58:00.751Z,51.50
2017-07-08T07:00:28.255Z,50.70
2017-07-08T07:02:56.659Z,49.90
2017-07-08T07:05:24.235Z,49.80
2017-07-08T07:07:51.783Z,49.80
2017-07-08T07:10:19.343Z,49.50
2017-07-08T07:12:46.915Z,49.50
2017-07-08T07:15:14.468Z,48.90
2017-07-08T07:17:41.974Z,48.50
2017-07-08T07:20:09.492Z,48.50
2017-07-08T07:22:37.049Z,48.70
2017-07-08T07:25:04.583Z,48.70
2017-07-08T07:27:32.155Z,48.70
2017-07-08T07:29:59.716Z,47.90
2017-07-08T07:32:27.291Z,47.70
2017-07-08T07:34:54.834Z,47.90
2017-07-08T07:37:22.363Z,46.10
2017-07-08T07:39:49.961Z,44.80
2017-07-08T07:42:17.520Z,40.80
2017-07-08T07:44:45.079Z,40.90
2017-07-08T07:47:12.638Z,42.40
2017-07-08T07:49:40.195Z,42.50
2017-07-08T07:52:07.694Z,40.70
2017-07-08T07:54:35.223Z,40.10
2017-07-08T07:57:02.722Z,39.90
2017-07-08T07:59:30.331Z,37.50
2017-07-08T08:01:57.891Z,37.10
2017-07-08T08:04:25.454Z,36.80
2017-07-08T08:06:52.960Z,36.90
2017-07-08T08:09:20.575Z,37.60
2017-07-08T08:11:48.105Z,37.60
2017-07-08T08:14:16.376Z,37.30
2017-07-08T08:16:43.907Z,36.70
2017-07-08T08:19:11.531Z,37.30
2017-07-08T08:21:39.067Z,36.80
2017-07-08T08:24:07.367Z,31.20
2017-07-08T08:26:34.892Z,31.30
2017-07-08T08:29:02.418Z,33.10
2017-07-08T08:31:29.915Z,33.80
2017-07-08T08:33:58.322Z,33.50
2017-07-08T08:36:25.882Z,33.50
2017-07-08T08:38:53.446Z,33.30
2017-07-08T08:41:20.975Z,32.60
2017-07-08T08:43:48.563Z,29.90
2017-07-08T08:46:16.126Z,30.00
2017-07-08T08:48:43.646Z,29.80
2017-07-08T08:51:11.175Z,29.70
2017-07-08T08:53:38.779Z,29.70
2017-07-08T08:56:07.200Z,29.80
2017-07-08T08:58:34.750Z,29.80
2017-07-08T09:01:02.306Z,30.00
2017-07-08T09:03:29.839Z,30.70
2017-07-08T09:05:58.103Z,29.90
2017-07-08T09:08:25.630Z,29.90
2017-07-08T09:10:53.259Z,29.90
2017-07-08T09:13:20.787Z,29.60
2017-07-08T09:15:48.482Z,29.50
2017-07-08T09:18:16.047Z,29.00
2017-07-08T09:20:43.542Z,28.30
2017-07-08T09:23:11.164Z,28.70
2017-07-08T09:25:38.726Z,28.60
2017-07-08T09:28:06.255Z,28.30
2017-07-08T09:30:33.756Z,28.40
2017-07-08T09:33:01.299Z,28.10
2017-07-08T09:35:28.870Z,28.00
2017-07-08T09:37:56.428Z,27.40
2017-07-08T09:40:23.987Z,26.40
2017-07-08T09:42:51.512Z,27.40
2017-07-08T09:45:19.035Z,27.70
2017-07-08T09:47:46.659Z,27.60
2017-07-08T09:50:14.235Z,28.00
2017-07-08T09:52:41.783Z,27.40
2017-07-08T09:55:09.348Z,27.60
2017-07-08T09:57:36.906Z,28.10
2017-07-08T10:00:04.470Z,27.80
2017-07-08T10:02:31.968Z,28.10
2017-07-08T10:04:59.463Z,28.30
2017-07-08T10:07:27.763Z,28.20
2017-07-08T10:09:55.259Z,28.20
2017-07-08T10:12:22.978Z,28.60
2017-07-08T10:14:50.475Z,29.20
2017-07-08T10:17:17.968Z,28.90
2017-07-08T10:19:45.560Z,28.90
2017-07-08T10:22:13.122Z,29.20
2017-07-08T10:24:40.687Z,29.70
2017-07-08T10:27:08.667Z,29.20
2017-07-08T10:29:36.211Z,28.60
2017-07-08T10:32:03.742Z,28.20
2017-07-08T10:34:32.015Z,28.70
2017-07-08T10:36:59.607Z,28.60
2017-07-08T10:39:27.134Z,28.30
2017-07-08T10:41:54.731Z,27.90
2017-07-08T10:44:22.223Z,27.70
2017-07-08T10:46:49.848Z,27.90
2017-07-08T10:49:17.340Z,26.50
2017-07-08T10:51:44.867Z,26.30
2017-07-08T10:54:12.443Z,26.70
2017-07-08T10:56:40.196Z,26.60
2017-07-08T10:59:07.856Z,26.30
2017-07-08T11:01:35.515Z,26.20
2017-07-08T11:04:03.077Z,25.70
2017-07-08T11:06:30.566Z,26.10
2017-07-08T11:08:58.199Z,26.60
2017-07-08T11:11:25.695Z,26.70
2017-07-08T11:13:53.260Z,24.90
2017-07-08T11:16:20.750Z,24.30
2017-07-08T11:18:49.056Z,21.30
2017-07-08T11:21:16.579Z,21.20
2017-07-08T11:23:44.170Z,21.60
2017-07-08T11:26:11.707Z,23.10
2017-07-08T11:28:40.011Z,24.10
2017-07-08T11:31:07.530Z,24.00
2017-07-08T11:33:35.134Z,24.30
2017-07-08T11:36:02.626Z,23.90
2017-07-08T11:38:30.155Z,24.10
2017-07-08T11:40:57.706Z,24.50
2017-07-08T11:43:25.275Z,24.50
2017-07-08T11:45:52.776Z,24.50
2017-07-08T11:48:20.301Z,24.00
2017-07-08T11:50:47.856Z,24.80
2017-07-08T11:53:15.388Z,24.10
2017-07-08T11:55:43.656Z,23.30
2017-07-08T11:58:11.963Z,22.30
2017-07-08T12:00:39.522Z,22.20
2017-07-08T12:03:07.087Z,22.20
2017-07-08T12:05:34.642Z,23.20
2017-07-08T12:08:02.166Z,22.40
2017-07-08T12:10:29.696Z,22.80
2017-07-08T12:12:57.323Z,23.00
2017-07-08T12:15:24.892Z,22.70
2017-07-08T12:17:52.419Z,21.80
2017-07-08T12:20:20.722Z,22.50
2017-07-08T12:22:48.223Z,22.50
2017-07-08T12:25:15.718Z,21.80
2017-07-08T12:27:44.050Z,21.50
2017-07-08T12:30:11.547Z,21.30
2017-07-08T12:32:39.868Z,21.30
2017-07-08T12:35:07.362Z,21.50
2017-07-08T12:37:34.971Z,21.90
2017-07-08T12:40:02.485Z,21.90
2017-07-08T12:42:30.015Z,20.20
2017-07-08T12:44:57.546Z,20.30
2017-07-08T12:47:25.119Z,20.40
2017-07-08T12:49:52.891Z,21.30
2017-07-08T12:52:20.399Z,20.50
2017-07-08T12:54:47.999Z,20.20
2017-07-08T12:57:15.526Z,20.40
2017-07-08T12:59:43.019Z,20.30
2017-07-08T13:02:10.573Z,20.50
2017-07-08T13:04:38.103Z,21.30
2017-07-08T13:07:05.694Z,21.20
2017-07-08T13:09:33.237Z,20.30
2017-07-08T13:12:01.555Z,20.20
2017-07-08T13:14:29.090Z,20.20
2017-07-08T13:16:56.652Z,20.20
2017-07-08T13:19:24.218Z,20.30
2017-07-08T13:21:51.743Z,20.50
2017-07-08T13:24:20.055Z,19.50
2017-07-08T13:26:47.586Z,19.60
2017-07-08T13:29:15.875Z,19.30
2017-07-08T13:31:44.135Z,20.50
2017-07-08T13:34:11.657Z,20.50
2017-07-08T13:36:39.183Z,20.50
2017-07-08T13:39:06.747Z,20.10
2017-07-08T13:41:34.303Z,20.40
2017-07-08T13:44:01.862Z,20.40
2017-07-08T13:46:29.355Z,20.40
2017-07-08T13:48:56.983Z,20.30
2017-07-08T13:51:24.486Z,20.40
2017-07-08T13:53:51.984Z,20.40
2017-07-08T13:56:19.524Z,20.50
2017-07-08T13:58:47.111Z,20.00
2017-07-08T14:01:14.646Z,20.60
2017-07-08T14:03:42.284Z,20.30
2017-07-08T14:06:09.894Z,19.50
2017-07-08T14:08:37.350Z,19.10
2017-07-08T14:11:05.622Z,19.20
2017-07-08T14:13:33.911Z,20.00
2017-07-08T14:16:01.412Z,19.90
2017-07-08T14:18:28.930Z,19.10
2017-07-08T14:20:56.439Z,18.90
2017-07-08T14:23:23.976Z,19.60
2017-07-08T14:25:51.516Z,19.60
2017-07-08T14:28:19.023Z,19.50
2017-07-08T14:30:46.555Z,19.20
2017-07-08T14:33:14.051Z,19.90
2017-07-08T14:35:41.588Z,20.10
2017-07-08T14:38:09.101Z,20.40
2017-07-08T14:40:36.606Z,20.40
2017-07-08T14:43:04.138Z,20.40
2017-07-08T14:45:31.647Z,20.40
2017-07-08T14:47:59.178Z,20.90
2017-07-08T14:50:26.687Z,21.20
2017-07-08T14:52:54.980Z,20.40
2017-07-08T14:55:22.467Z,20.30
2017-07-08T14:57:49.988Z,20.50
2017-07-08T15:00:17.488Z,20.70
2017-07-08T15:02:45.028Z,20.70
2017-07-08T15:05:12.536Z,20.20
2017-07-08T15:07:40.060Z,20.30
2017-07-08T15:10:07.582Z,21.60
2017-07-08T15:12:35.108Z,20.90
2017-07-08T15:15:02.594Z,20.90
2017-07-08T15:17:30.601Z,21.20
2017-07-08T15:19:58.566Z,21.00
2017-07-08T15:22:26.086Z,21.50
2017-07-08T15:24:54.407Z,21.90
2017-07-08T15:27:21.947Z,21.90
2017-07-08T15:29:49.489Z,22.20
2017-07-08T15:32:17.016Z,22.60
2017-07-08T15:34:45.099Z,23.20
2017-07-08T15:37:12.603Z,22.90
2017-07-08T15:39:40.164Z,23.10
2017-07-08T15:42:07.725Z,23.10
2017-07-08T15:44:35.260Z,23.80
2017-07-08T15:47:03.556Z,24.50
2017-07-08T15:49:31.083Z,24.50
2017-07-08T15:51:59.380Z,24.90
2017-07-08T15:54:26.904Z,24.90
2017-07-08T15:56:54.432Z,26.10
2017-07-08T15:59:21.962Z,25.70
2017-07-08T16:01:49.606Z,26.10
2017-07-08T16:04:17.891Z,26.00
2017-07-08T16:06:45.443Z,26.00
2017-07-08T16:09:13.707Z,26.00
2017-07-08T16:11:41.235Z,26.00
2017-07-08T16:14:08.732Z,26.00
2017-07-08T16:16:36.250Z,26.70
2017-07-08T16:19:03.790Z,26.50
2017-07-08T16:21:31.348Z,27.00
2017-07-08T16:23:58.853Z,27.20
2017-07-08T16:26:26.455Z,27.20
2017-07-08T16:28:53.982Z,27.10
2017-07-08T16:31:21.475Z,27.30
2017-07-08T16:33:49.003Z,27.50
2017-07-08T16:36:16.572Z,27.70
2017-07-08T16:38:44.875Z,27.80
2017-07-08T16:41:12.427Z,27.80
2017-07-08T16:43:39.955Z,28.10
2017-07-08T16:46:07.455Z,28.10
2017-07-08T16:48:34.990Z,28.40
2017-07-08T16:51:03.291Z,28.70
2017-07-08T16:53:30.855Z,28.70
2017-07-08T16:55:58.411Z,28.90
2017-07-08T16:58:26.294Z,28.90
2017-07-08T17:00:53.838Z,29.40
2017-07-08T17:03:21.368Z,29.80
2017-07-08T17:05:49.659Z,30.30
2017-07-08T17:08:18.058Z,30.80
2017-07-08T17:10:45.618Z,30.80
2017-07-08T17:13:13.167Z,31.20
2017-07-08T17:15:40.668Z,31.90
2017-07-08T17:18:08.290Z,32.70
2017-07-08T17:20:35.969Z,33.40
2017-07-08T17:23:03.490Z,33.10
2017-07-08T17:25:31.837Z,33.90
2017-07-08T17:27:59.330Z,33.80
2017-07-08T17:30:27.843Z,34.70
2017-07-08T17:32:55.377Z,34.70
2017-07-08T17:35:23.780Z,34.90
2017-07-08T17:37:51.275Z,34.90
2017-07-08T17:40:19.644Z,35.30
2017-07-08T17:42:47.198Z,35.00
2017-07-08T17:45:14.872Z,35.10
2017-07-08T17:47:42.379Z,35.00
2017-07-08T17:50:10.644Z,35.50
2017-07-08T17:52:38.938Z,36.20
2017-07-08T17:55:07.259Z,35.50
2017-07-08T17:57:34.763Z,35.50
2017-07-08T18:00:03.033Z,35.40
2017-07-08T18:02:31.360Z,36.00
2017-07-08T18:04:59.034Z,35.20
2017-07-08T18:07:26.669Z,35.20
2017-07-08T18:09:54.172Z,35.30
2017-07-08T18:12:21.700Z,35.60
2017-07-08T18:14:49.222Z,36.10
2017-07-08T18:17:17.508Z,36.00
2017-07-08T18:19:45.060Z,35.90
2017-07-08T18:22:13.366Z,36.30
2017-07-08T18:24:40.923Z,36.20
2017-07-08T18:27:08.483Z,36.40
2017-07-08T18:29:36.017Z,36.20
2017-07-08T18:32:04.283Z,36.40
2017-07-08T18:34:31.883Z,36.40
2017-07-08T18:36:59.420Z,36.40
2017-07-08T18:39:27.715Z,36.80
2017-07-08T18:41:55.246Z,36.80
2017-07-08T18:44:23.759Z,38.20
2017-07-08T18:46:51.267Z,37.60
2017-07-08T18:49:18.759Z,37.60
2017-07-08T18:51:46.287Z,37.90
2017-07-08T18:54:13.787Z,37.70
2017-07-08T18:56:41.350Z,37.90
2017-07-08T18:59:08.852Z,38.00
2017-07-08T19:01:36.468Z,38.20
2017-07-08T19:04:04.031Z,38.20
2017-07-08T19:06:32.510Z,38.30
2017-07-08T19:09:00.261Z,38.30
2017-07-08T19:11:27.846Z,38.50
2017-07-08T19:13:55.381Z,38.60
2017-07-08T19:16:24.097Z,39.00
2017-07-08T19:18:53.570Z,39.00
2017-07-08T19:21:21.620Z,39.00
2017-07-08T19:23:49.159Z,39.00
2017-07-08T19:26:16.742Z,39.10
2017-07-08T19:28:44.331Z,39.30
2017-07-08T19:31:11.884Z,39.50
2017-07-08T19:33:39.466Z,39.50
2017-07-08T19:36:06.996Z,40.60
2017-07-08T19:38:35.530Z,42.50
2017-07-08T19:41:03.039Z,42.50
2017-07-08T19:43:30.623Z,43.80
2017-07-08T19:45:58.187Z,45.20
2017-07-08T19:48:25.718Z,45.50
2017-07-08T19:50:54.007Z,45.40
2017-07-08T19:53:21.587Z,45.80
2017-07-08T19:55:49.120Z,46.30
2017-07-08T19:58:17.420Z,45.80
2017-07-08T20:00:44.923Z,45.80
2017-07-08T20:03:12.457Z,46.50
2017-07-08T20:05:39.955Z,46.70
2017-07-08T20:08:07.483Z,47.30
2017-07-08T20:10:35.022Z,47.60
2017-07-08T20:13:02.527Z,47.60
2017-07-08T20:15:30.135Z,47.90
2017-07-08T20:17:57.639Z,48.60
2017-07-08T20:20:25.179Z,48.40
2017-07-08T20:22:52.811Z,48.50
2017-07-08T20:25:20.381Z,49.00
2017-07-08T20:27:47.909Z,49.30
2017-07-08T20:30:16.320Z,49.90
2017-07-08T20:32:43.852Z,49.80
2017-07-08T20:35:12.119Z,49.90
2017-07-08T20:37:40.419Z,50.10
2017-07-08T20:40:07.951Z,50.00
2017-07-08T20:42:35.456Z,50.10
2017-07-08T20:45:03.006Z,50.20
2017-07-08T20:47:30.512Z,50.50
2017-07-08T20:49:58.043Z,50.10
2017-07-08T20:52:25.591Z,50.30
2017-07-08T20:54:53.099Z,50.40
2017-07-08T20:57:20.627Z,50.40
2017-07-08T20:59:48.128Z,50.70
2017-07-08T21:02:16.539Z,51.60
2017-07-08T21:04:44.038Z,51.10
2017-07-08T21:07:11.563Z,51.10
2017-07-08T21:09:39.092Z,51.10
2017-07-08T21:12:07.391Z,51.80
2017-07-08T21:14:34.922Z,51.90
2017-07-08T21:17:02.429Z,52.10
2017-07-08T21:19:29.959Z,52.50
2017-07-08T21:21:58.222Z,53.10
2017-07-08T21:24:25.811Z,53.10
2017-07-08T21:26:53.377Z,53.70
2017-07-08T21:29:20.910Z,54.40
2017-07-08T21:31:49.211Z,55.50
2017-07-08T21:34:16.867Z,55.50
2017-07-08T21:36:44.375Z,56.10
2017-07-08T21:39:11.985Z,56.60
2017-07-08T21:41:39.521Z,56.90
2017-07-08T21:44:07.824Z,58.30
2017-07-08T21:46:35.354Z,58.20
2017-07-08T21:49:08.623Z,58.40
2017-07-08T21:51:36.159Z,58.40
2017-07-08T21:54:03.686Z,59.20
2017-07-08T21:56:31.183Z,59.50
2017-07-08T21:58:58.710Z,59.90
2017-07-08T22:01:26.274Z,60.30
2017-07-08T22:03:53.838Z,60.60
2017-07-08T22:06:21.343Z,60.90
2017-07-08T22:08:48.879Z,61.00
2017-07-08T22:11:16.515Z,61.00
2017-07-08T22:13:44.028Z,60.80
2017-07-08T22:16:11.635Z,61.10
2017-07-08T22:18:39.298Z,61.20
2017-07-08T22:21:06.807Z,61.30
2017-07-08T22:23:34.335Z,61.20
2017-07-08T22:26:01.879Z,61.30
2017-07-08T22:28:29.391Z,61.30
2017-07-08T22:30:56.927Z,61.60
2017-07-08T22:33:24.472Z,61.60
2017-07-08T22:35:52.029Z,61.80
2017-07-08T22:38:19.797Z,61.40
2017-07-08T22:40:47.765Z,61.70
2017-07-08T22:43:15.531Z,61.60
2017-07-08T22:45:43.296Z,61.80
2017-07-08T22:48:11.166Z,61.70
2017-07-08T22:50:39.034Z,62.00
2017-07-08T22:53:06.901Z,62.40
2017-07-08T22:55:35.621Z,63.10
2017-07-08T22:58:04.271Z,64.00
2017-07-08T23:00:32.138Z,64.00
2017-07-08T23:02:59.931Z,64.20
2017-07-08T23:05:27.770Z,64.40
2017-07-08T23:07:55.535Z,64.60
2017-07-08T23:10:23.810Z,64.90
2017-07-08T23:12:51.575Z,65.20
2017-07-08T23:15:19.179Z,65.90
2017-07-08T23:17:47.748Z,65.90
2017-07-08T23:20:15.587Z,65.90
2017-07-08T23:22:43.278Z,65.90
2017-07-08T23:25:10.937Z,66.00
2017-07-08T23:27:38.780Z,66.10
2017-07-08T23:30:06.547Z,66.40
2017-07-08T23:32:34.310Z,66.60
2017-07-08T23:35:02.074Z,66.80
2017-07-08T23:37:29.758Z,67.20
2017-07-08T23:39:57.502Z,67.20
2017-07-08T23:42:25.460Z,67.50
2017-07-08T23:44:53.162Z,67.80
2017-07-08T23:47:21.718Z,69.50
2017-07-08T23:49:49.482Z,68.80
2017-07-08T23:52:17.350Z,69.20
2017-07-08T23:54:45.042Z,69.20
2017-07-08T23:57:12.880Z,69.10
2017-07-08T23:59:40.671Z,69.20
